sensor_id;sensor_type;location;lat;lon;timestamp;P1;durP1;ratioP1;P2;durP2;ratioP2
14516;SDS011;7344;50.864;4.362;2023-03-01T00:00:54;14.60;;;10.50;;
14516;SDS011;7344;50.864;4.362;2023-03-01T00:03:25;14.77;;;10.73;;
14516;SDS011;7344;50.864;4.362;2023-03-01T00:05:50;25.30;;;11.83;;
14516;SDS011;7344;50.864;4.362;2023-03-01T00:08:16;21.30;;;11.63;;
14516;SDS011;7344;50.864;4.362;2023-03-01T00:10:42;14.47;;;11.03;;
14516;SDS011;7344;50.864;4.362;2023-03-01T00:13:07;17.03;;;11.20;;
14516;SDS011;7344;50.864;4.362;2023-03-01T00:15:33;18.40;;;11.67;;
14516;SDS011;7344;50.864;4.362;2023-03-01T00:18:02;15.07;;;10.90;;
14516;SDS011;7344;50.864;4.362;2023-03-01T00:20:28;13.33;;;11.33;;
14516;SDS011;7344;50.864;4.362;2023-03-01T00:22:53;18.90;;;11.13;;
14516;SDS011;7344;50.864;4.362;2023-03-01T00:25:19;16.30;;;11.47;;
14516;SDS011;7344;50.864;4.362;2023-03-01T00:27:46;14.23;;;10.47;;
14516;SDS011;7344;50.864;4.362;2023-03-01T00:30:11;14.67;;;10.23;;
14516;SDS011;7344;50.864;4.362;2023-03-01T00:32:37;16.60;;;11.47;;
14516;SDS011;7344;50.864;4.362;2023-03-01T00:35:03;16.30;;;11.07;;
14516;SDS011;7344;50.864;4.362;2023-03-01T00:37:30;16.23;;;11.73;;
14516;SDS011;7344;50.864;4.362;2023-03-01T00:39:56;12.63;;;10.67;;
14516;SDS011;7344;50.864;4.362;2023-03-01T00:42:21;12.90;;;10.43;;
14516;SDS011;7344;50.864;4.362;2023-03-01T00:44:47;13.40;;;11.13;;
14516;SDS011;7344;50.864;4.362;2023-03-01T00:47:13;14.00;;;10.50;;
14516;SDS011;7344;50.864;4.362;2023-03-01T00:49:39;14.17;;;11.47;;
14516;SDS011;7344;50.864;4.362;2023-03-01T00:52:04;13.57;;;10.77;;
14516;SDS011;7344;50.864;4.362;2023-03-01T00:54:30;14.30;;;11.90;;
14516;SDS011;7344;50.864;4.362;2023-03-01T00:56:56;14.30;;;11.40;;
14516;SDS011;7344;50.864;4.362;2023-03-01T00:59:22;15.80;;;10.93;;
14516;SDS011;7344;50.864;4.362;2023-03-01T01:01:47;14.53;;;11.00;;
14516;SDS011;7344;50.864;4.362;2023-03-01T01:04:13;14.53;;;11.20;;
14516;SDS011;7344;50.864;4.362;2023-03-01T01:06:40;12.43;;;10.93;;
14516;SDS011;7344;50.864;4.362;2023-03-01T01:09:08;14.57;;;10.47;;
14516;SDS011;7344;50.864;4.362;2023-03-01T01:11:42;13.47;;;11.23;;
14516;SDS011;7344;50.864;4.362;2023-03-01T01:14:08;15.00;;;11.30;;
14516;SDS011;7344;50.864;4.362;2023-03-01T01:16:35;15.47;;;11.47;;
14516;SDS011;7344;50.864;4.362;2023-03-01T01:19:00;13.27;;;10.57;;
14516;SDS011;7344;50.864;4.362;2023-03-01T01:21:26;15.03;;;10.80;;
14516;SDS011;7344;50.864;4.362;2023-03-01T01:23:52;15.57;;;10.80;;
14516;SDS011;7344;50.864;4.362;2023-03-01T01:26:19;12.83;;;9.97;;
14516;SDS011;7344;50.864;4.362;2023-03-01T01:28:50;12.37;;;10.33;;
14516;SDS011;7344;50.864;4.362;2023-03-01T01:31:16;14.43;;;10.30;;
14516;SDS011;7344;50.864;4.362;2023-03-01T01:33:42;16.07;;;10.70;;
14516;SDS011;7344;50.864;4.362;2023-03-01T01:36:08;13.10;;;10.47;;
14516;SDS011;7344;50.864;4.362;2023-03-01T01:38:34;14.70;;;10.20;;
14516;SDS011;7344;50.864;4.362;2023-03-01T01:41:01;13.97;;;9.97;;
14516;SDS011;7344;50.864;4.362;2023-03-01T01:46:02;16.97;;;11.17;;
14516;SDS011;7344;50.864;4.362;2023-03-01T01:49:17;13.40;;;10.50;;
14516;SDS011;7344;50.864;4.362;2023-03-01T01:51:23;15.80;;;10.30;;
14516;SDS011;7344;50.864;4.362;2023-03-01T01:53:53;12.70;;;9.63;;
14516;SDS011;7344;50.864;4.362;2023-03-01T01:56:23;14.00;;;10.77;;
14516;SDS011;7344;50.864;4.362;2023-03-01T01:58:50;14.90;;;10.57;;
14516;SDS011;7344;50.864;4.362;2023-03-01T02:01:16;12.70;;;10.70;;
14516;SDS011;7344;50.864;4.362;2023-03-01T02:03:42;12.47;;;10.20;;
14516;SDS011;7344;50.864;4.362;2023-03-01T02:08:36;13.87;;;10.90;;
14516;SDS011;7344;50.864;4.362;2023-03-01T02:11:04;13.73;;;10.50;;
14516;SDS011;7344;50.864;4.362;2023-03-01T02:13:31;14.10;;;10.50;;
14516;SDS011;7344;50.864;4.362;2023-03-01T02:15:58;15.63;;;10.70;;
14516;SDS011;7344;50.864;4.362;2023-03-01T02:18:25;14.07;;;10.40;;
14516;SDS011;7344;50.864;4.362;2023-03-01T02:20:57;16.20;;;11.57;;
14516;SDS011;7344;50.864;4.362;2023-03-01T02:23:42;14.13;;;10.63;;
14516;SDS011;7344;50.864;4.362;2023-03-01T02:26:15;17.17;;;10.97;;
14516;SDS011;7344;50.864;4.362;2023-03-01T02:28:54;14.17;;;11.40;;
14516;SDS011;7344;50.864;4.362;2023-03-01T02:31:20;16.83;;;10.20;;
14516;SDS011;7344;50.864;4.362;2023-03-01T02:34:05;16.80;;;11.23;;
14516;SDS011;7344;50.864;4.362;2023-03-01T02:36:37;19.30;;;11.27;;
14516;SDS011;7344;50.864;4.362;2023-03-01T02:39:10;16.83;;;11.20;;
14516;SDS011;7344;50.864;4.362;2023-03-01T02:41:42;19.37;;;11.53;;
14516;SDS011;7344;50.864;4.362;2023-03-01T02:44:14;24.13;;;11.70;;
14516;SDS011;7344;50.864;4.362;2023-03-01T02:46:47;18.93;;;10.77;;
14516;SDS011;7344;50.864;4.362;2023-03-01T02:49:22;15.87;;;11.17;;
14516;SDS011;7344;50.864;4.362;2023-03-01T02:56:58;16.93;;;11.10;;
14516;SDS011;7344;50.864;4.362;2023-03-01T02:59:26;16.20;;;10.60;;
14516;SDS011;7344;50.864;4.362;2023-03-01T03:01:55;16.13;;;10.53;;
14516;SDS011;7344;50.864;4.362;2023-03-01T03:04:20;18.07;;;10.93;;
14516;SDS011;7344;50.864;4.362;2023-03-01T03:06:47;17.97;;;11.43;;
14516;SDS011;7344;50.864;4.362;2023-03-01T03:09:15;14.13;;;10.60;;
14516;SDS011;7344;50.864;4.362;2023-03-01T03:11:41;14.57;;;10.70;;
14516;SDS011;7344;50.864;4.362;2023-03-01T03:14:11;14.40;;;10.50;;
14516;SDS011;7344;50.864;4.362;2023-03-01T03:16:41;18.13;;;11.27;;
14516;SDS011;7344;50.864;4.362;2023-03-01T03:19:08;15.30;;;11.10;;
14516;SDS011;7344;50.864;4.362;2023-03-01T03:21:34;14.93;;;10.67;;
14516;SDS011;7344;50.864;4.362;2023-03-01T03:24:00;18.57;;;11.57;;
14516;SDS011;7344;50.864;4.362;2023-03-01T03:26:26;13.93;;;11.00;;
14516;SDS011;7344;50.864;4.362;2023-03-01T03:28:52;13.03;;;10.60;;
14516;SDS011;7344;50.864;4.362;2023-03-01T03:31:18;16.13;;;11.03;;
14516;SDS011;7344;50.864;4.362;2023-03-01T03:33:43;14.43;;;11.00;;
14516;SDS011;7344;50.864;4.362;2023-03-01T03:36:09;18.67;;;11.20;;
14516;SDS011;7344;50.864;4.362;2023-03-01T03:38:42;13.63;;;10.83;;
14516;SDS011;7344;50.864;4.362;2023-03-01T03:41:08;15.07;;;11.60;;
14516;SDS011;7344;50.864;4.362;2023-03-01T03:43:35;15.67;;;11.23;;
14516;SDS011;7344;50.864;4.362;2023-03-01T03:46:03;12.97;;;10.67;;
14516;SDS011;7344;50.864;4.362;2023-03-01T03:48:36;12.87;;;10.63;;
14516;SDS011;7344;50.864;4.362;2023-03-01T03:51:05;18.33;;;11.30;;
14516;SDS011;7344;50.864;4.362;2023-03-01T03:53:32;15.77;;;10.90;;
14516;SDS011;7344;50.864;4.362;2023-03-01T03:55:58;16.53;;;11.10;;
14516;SDS011;7344;50.864;4.362;2023-03-01T03:58:24;13.83;;;10.70;;
14516;SDS011;7344;50.864;4.362;2023-03-01T04:00:51;12.63;;;10.20;;
14516;SDS011;7344;50.864;4.362;2023-03-01T04:03:19;13.40;;;10.57;;
14516;SDS011;7344;50.864;4.362;2023-03-01T04:05:45;13.60;;;10.50;;
14516;SDS011;7344;50.864;4.362;2023-03-01T04:08:12;13.97;;;11.47;;
14516;SDS011;7344;50.864;4.362;2023-03-01T04:10:41;17.23;;;11.57;;
14516;SDS011;7344;50.864;4.362;2023-03-01T04:13:11;14.20;;;10.23;;
14516;SDS011;7344;50.864;4.362;2023-03-01T04:15:38;13.27;;;10.83;;
14516;SDS011;7344;50.864;4.362;2023-03-01T04:18:04;18.37;;;11.00;;
14516;SDS011;7344;50.864;4.362;2023-03-01T04:20:32;13.03;;;10.90;;
14516;SDS011;7344;50.864;4.362;2023-03-01T04:23:00;17.10;;;11.47;;
14516;SDS011;7344;50.864;4.362;2023-03-01T04:25:38;17.63;;;11.70;;
14516;SDS011;7344;50.864;4.362;2023-03-01T04:28:10;15.27;;;11.83;;
14516;SDS011;7344;50.864;4.362;2023-03-01T04:30:36;14.90;;;11.93;;
14516;SDS011;7344;50.864;4.362;2023-03-01T04:33:03;15.00;;;10.67;;
14516;SDS011;7344;50.864;4.362;2023-03-01T04:35:34;19.23;;;12.00;;
14516;SDS011;7344;50.864;4.362;2023-03-01T04:38:00;15.30;;;11.40;;
14516;SDS011;7344;50.864;4.362;2023-03-01T04:40:26;18.40;;;11.90;;
14516;SDS011;7344;50.864;4.362;2023-03-01T04:42:52;20.37;;;12.90;;
14516;SDS011;7344;50.864;4.362;2023-03-01T04:45:18;23.17;;;12.57;;
14516;SDS011;7344;50.864;4.362;2023-03-01T04:47:45;18.87;;;12.97;;
14516;SDS011;7344;50.864;4.362;2023-03-01T04:50:12;17.60;;;12.10;;
14516;SDS011;7344;50.864;4.362;2023-03-01T04:52:39;16.37;;;11.33;;
14516;SDS011;7344;50.864;4.362;2023-03-01T04:55:05;15.37;;;11.40;;
14516;SDS011;7344;50.864;4.362;2023-03-01T04:57:32;17.80;;;11.87;;
14516;SDS011;7344;50.864;4.362;2023-03-01T04:59:58;18.03;;;11.80;;
14516;SDS011;7344;50.864;4.362;2023-03-01T05:02:24;20.33;;;11.63;;
14516;SDS011;7344;50.864;4.362;2023-03-01T05:04:49;18.23;;;12.53;;
14516;SDS011;7344;50.864;4.362;2023-03-01T05:07:15;19.53;;;12.53;;
14516;SDS011;7344;50.864;4.362;2023-03-01T05:09:44;17.10;;;12.03;;
14516;SDS011;7344;50.864;4.362;2023-03-01T05:12:13;16.70;;;12.13;;
14516;SDS011;7344;50.864;4.362;2023-03-01T05:14:39;22.83;;;12.97;;
14516;SDS011;7344;50.864;4.362;2023-03-01T05:17:06;20.73;;;12.00;;
14516;SDS011;7344;50.864;4.362;2023-03-01T05:19:32;16.20;;;11.73;;
14516;SDS011;7344;50.864;4.362;2023-03-01T05:21:59;23.70;;;12.47;;
14516;SDS011;7344;50.864;4.362;2023-03-01T05:24:29;21.67;;;12.97;;
14516;SDS011;7344;50.864;4.362;2023-03-01T05:26:55;19.50;;;12.93;;
14516;SDS011;7344;50.864;4.362;2023-03-01T05:29:22;20.47;;;11.40;;
14516;SDS011;7344;50.864;4.362;2023-03-01T05:31:55;17.97;;;12.60;;
14516;SDS011;7344;50.864;4.362;2023-03-01T05:34:33;16.20;;;12.60;;
14516;SDS011;7344;50.864;4.362;2023-03-01T05:37:00;17.50;;;12.63;;
14516;SDS011;7344;50.864;4.362;2023-03-01T05:39:28;20.83;;;12.03;;
14516;SDS011;7344;50.864;4.362;2023-03-01T05:41:55;17.93;;;12.47;;
14516;SDS011;7344;50.864;4.362;2023-03-01T05:44:22;23.80;;;11.93;;
14516;SDS011;7344;50.864;4.362;2023-03-01T05:46:48;21.63;;;12.93;;
14516;SDS011;7344;50.864;4.362;2023-03-01T05:49:14;21.57;;;12.60;;
14516;SDS011;7344;50.864;4.362;2023-03-01T05:51:40;21.07;;;11.73;;
14516;SDS011;7344;50.864;4.362;2023-03-01T05:54:07;24.93;;;12.33;;
14516;SDS011;7344;50.864;4.362;2023-03-01T05:56:34;18.93;;;13.07;;
14516;SDS011;7344;50.864;4.362;2023-03-01T05:59:00;19.43;;;12.07;;
14516;SDS011;7344;50.864;4.362;2023-03-01T06:01:26;18.50;;;10.63;;
14516;SDS011;7344;50.864;4.362;2023-03-01T06:03:52;17.90;;;12.53;;
14516;SDS011;7344;50.864;4.362;2023-03-01T06:06:18;26.00;;;12.07;;
14516;SDS011;7344;50.864;4.362;2023-03-01T06:08:44;20.43;;;11.50;;
14516;SDS011;7344;50.864;4.362;2023-03-01T06:11:09;22.93;;;13.47;;
14516;SDS011;7344;50.864;4.362;2023-03-01T06:13:35;17.47;;;10.83;;
14516;SDS011;7344;50.864;4.362;2023-03-01T06:16:03;27.37;;;13.27;;
14516;SDS011;7344;50.864;4.362;2023-03-01T06:18:32;24.40;;;11.90;;
14516;SDS011;7344;50.864;4.362;2023-03-01T06:20:58;23.03;;;12.60;;
14516;SDS011;7344;50.864;4.362;2023-03-01T06:23:23;23.53;;;13.30;;
14516;SDS011;7344;50.864;4.362;2023-03-01T06:25:49;17.60;;;11.83;;
14516;SDS011;7344;50.864;4.362;2023-03-01T06:28:15;20.57;;;12.27;;
14516;SDS011;7344;50.864;4.362;2023-03-01T06:30:40;18.90;;;11.07;;
14516;SDS011;7344;50.864;4.362;2023-03-01T06:33:06;22.63;;;12.70;;
14516;SDS011;7344;50.864;4.362;2023-03-01T06:35:32;21.97;;;12.27;;
14516;SDS011;7344;50.864;4.362;2023-03-01T06:38:02;14.90;;;10.23;;
14516;SDS011;7344;50.864;4.362;2023-03-01T06:40:29;13.93;;;11.10;;
14516;SDS011;7344;50.864;4.362;2023-03-01T06:42:56;20.90;;;12.27;;
14516;SDS011;7344;50.864;4.362;2023-03-01T06:45:22;13.60;;;10.33;;
14516;SDS011;7344;50.864;4.362;2023-03-01T06:47:49;15.17;;;11.17;;
14516;SDS011;7344;50.864;4.362;2023-03-01T06:50:15;14.60;;;10.97;;
14516;SDS011;7344;50.864;4.362;2023-03-01T06:52:42;14.50;;;10.37;;
14516;SDS011;7344;50.864;4.362;2023-03-01T06:55:09;15.97;;;11.13;;
14516;SDS011;7344;50.864;4.362;2023-03-01T06:57:35;15.53;;;11.63;;
14516;SDS011;7344;50.864;4.362;2023-03-01T07:00:02;19.20;;;11.63;;
14516;SDS011;7344;50.864;4.362;2023-03-01T07:02:30;15.90;;;10.50;;
14516;SDS011;7344;50.864;4.362;2023-03-01T07:04:56;18.67;;;11.33;;
14516;SDS011;7344;50.864;4.362;2023-03-01T07:07:22;14.47;;;11.17;;
14516;SDS011;7344;50.864;4.362;2023-03-01T07:09:48;15.33;;;11.77;;
14516;SDS011;7344;50.864;4.362;2023-03-01T07:12:14;14.43;;;11.00;;
14516;SDS011;7344;50.864;4.362;2023-03-01T07:14:40;14.90;;;9.97;;
14516;SDS011;7344;50.864;4.362;2023-03-01T07:17:06;14.63;;;10.63;;
14516;SDS011;7344;50.864;4.362;2023-03-01T07:19:32;18.80;;;11.67;;
14516;SDS011;7344;50.864;4.362;2023-03-01T07:21:58;15.70;;;11.03;;
14516;SDS011;7344;50.864;4.362;2023-03-01T07:24:23;14.70;;;11.53;;
14516;SDS011;7344;50.864;4.362;2023-03-01T07:26:49;17.50;;;10.87;;
14516;SDS011;7344;50.864;4.362;2023-03-01T07:29:16;18.63;;;11.47;;
14516;SDS011;7344;50.864;4.362;2023-03-01T07:31:42;18.57;;;11.47;;
14516;SDS011;7344;50.864;4.362;2023-03-01T07:34:08;16.57;;;10.23;;
14516;SDS011;7344;50.864;4.362;2023-03-01T07:36:35;15.63;;;10.73;;
14516;SDS011;7344;50.864;4.362;2023-03-01T07:39:01;14.90;;;8.23;;
14516;SDS011;7344;50.864;4.362;2023-03-01T07:41:28;17.53;;;10.20;;
14516;SDS011;7344;50.864;4.362;2023-03-01T07:43:54;16.13;;;10.10;;
14516;SDS011;7344;50.864;4.362;2023-03-01T07:46:20;13.87;;;10.73;;
14516;SDS011;7344;50.864;4.362;2023-03-01T07:48:46;16.90;;;9.83;;
14516;SDS011;7344;50.864;4.362;2023-03-01T07:51:12;11.07;;;9.60;;
14516;SDS011;7344;50.864;4.362;2023-03-01T07:53:38;14.20;;;9.93;;
14516;SDS011;7344;50.864;4.362;2023-03-01T07:56:10;16.10;;;9.77;;
14516;SDS011;7344;50.864;4.362;2023-03-01T07:58:38;13.60;;;9.80;;
14516;SDS011;7344;50.864;4.362;2023-03-01T08:01:05;16.57;;;11.13;;
14516;SDS011;7344;50.864;4.362;2023-03-01T08:03:33;14.90;;;9.97;;
14516;SDS011;7344;50.864;4.362;2023-03-01T08:06:00;12.87;;;9.73;;
14516;SDS011;7344;50.864;4.362;2023-03-01T08:08:27;13.80;;;9.80;;
14516;SDS011;7344;50.864;4.362;2023-03-01T08:10:52;13.30;;;9.83;;
14516;SDS011;7344;50.864;4.362;2023-03-01T08:13:22;10.97;;;9.87;;
14516;SDS011;7344;50.864;4.362;2023-03-01T08:15:50;18.67;;;10.67;;
14516;SDS011;7344;50.864;4.362;2023-03-01T08:18:16;13.77;;;10.40;;
14516;SDS011;7344;50.864;4.362;2023-03-01T08:20:43;12.33;;;9.70;;
14516;SDS011;7344;50.864;4.362;2023-03-01T08:23:09;15.93;;;10.93;;
14516;SDS011;7344;50.864;4.362;2023-03-01T08:25:34;14.60;;;10.40;;
14516;SDS011;7344;50.864;4.362;2023-03-01T08:28:00;10.37;;;9.27;;
14516;SDS011;7344;50.864;4.362;2023-03-01T08:30:25;13.67;;;10.63;;
14516;SDS011;7344;50.864;4.362;2023-03-01T08:32:51;21.03;;;10.53;;
14516;SDS011;7344;50.864;4.362;2023-03-01T08:35:17;10.13;;;8.80;;
14516;SDS011;7344;50.864;4.362;2023-03-01T08:37:43;13.70;;;10.20;;
14516;SDS011;7344;50.864;4.362;2023-03-01T08:40:09;10.80;;;9.53;;
14516;SDS011;7344;50.864;4.362;2023-03-01T08:42:36;11.70;;;10.53;;
14516;SDS011;7344;50.864;4.362;2023-03-01T08:45:05;12.40;;;10.50;;
14516;SDS011;7344;50.864;4.362;2023-03-01T08:47:32;11.00;;;9.40;;
14516;SDS011;7344;50.864;4.362;2023-03-01T08:49:58;11.33;;;9.90;;
14516;SDS011;7344;50.864;4.362;2023-03-01T08:52:24;16.33;;;10.50;;
14516;SDS011;7344;50.864;4.362;2023-03-01T08:54:50;13.70;;;10.23;;
14516;SDS011;7344;50.864;4.362;2023-03-01T08:57:16;16.73;;;10.20;;
14516;SDS011;7344;50.864;4.362;2023-03-01T08:59:42;11.70;;;9.10;;
14516;SDS011;7344;50.864;4.362;2023-03-01T09:02:12;18.10;;;9.87;;
14516;SDS011;7344;50.864;4.362;2023-03-01T09:04:39;12.77;;;10.33;;
14516;SDS011;7344;50.864;4.362;2023-03-01T09:07:05;10.00;;;9.00;;
14516;SDS011;7344;50.864;4.362;2023-03-01T09:09:31;11.87;;;10.63;;
14516;SDS011;7344;50.864;4.362;2023-03-01T09:11:57;16.57;;;10.20;;
14516;SDS011;7344;50.864;4.362;2023-03-01T09:14:23;14.70;;;10.00;;
14516;SDS011;7344;50.864;4.362;2023-03-01T09:16:48;13.67;;;11.17;;
14516;SDS011;7344;50.864;4.362;2023-03-01T09:19:15;14.70;;;10.27;;
14516;SDS011;7344;50.864;4.362;2023-03-01T09:21:41;16.00;;;10.13;;
14516;SDS011;7344;50.864;4.362;2023-03-01T09:24:17;16.77;;;10.60;;
14516;SDS011;7344;50.864;4.362;2023-03-01T09:26:47;13.80;;;10.47;;
14516;SDS011;7344;50.864;4.362;2023-03-01T09:29:13;12.97;;;10.17;;
14516;SDS011;7344;50.864;4.362;2023-03-01T09:31:40;13.57;;;10.70;;
14516;SDS011;7344;50.864;4.362;2023-03-01T09:34:06;14.33;;;10.70;;
14516;SDS011;7344;50.864;4.362;2023-03-01T09:36:32;11.50;;;8.17;;
14516;SDS011;7344;50.864;4.362;2023-03-01T09:38:58;13.03;;;9.93;;
14516;SDS011;7344;50.864;4.362;2023-03-01T09:44:23;12.33;;;10.70;;
14516;SDS011;7344;50.864;4.362;2023-03-01T09:47:11;17.90;;;11.17;;
14516;SDS011;7344;50.864;4.362;2023-03-01T09:49:41;12.47;;;11.00;;
14516;SDS011;7344;50.864;4.362;2023-03-01T09:55:00;15.33;;;10.37;;
14516;SDS011;7344;50.864;4.362;2023-03-01T09:57:36;15.50;;;11.03;;
14516;SDS011;7344;50.864;4.362;2023-03-01T10:05:10;14.20;;;10.43;;
14516;SDS011;7344;50.864;4.362;2023-03-01T10:10:33;15.40;;;11.40;;
14516;SDS011;7344;50.864;4.362;2023-03-01T10:15:50;15.40;;;11.47;;
14516;SDS011;7344;50.864;4.362;2023-03-01T10:18:29;16.10;;;10.87;;
14516;SDS011;7344;50.864;4.362;2023-03-01T10:20:59;19.63;;;11.30;;
14516;SDS011;7344;50.864;4.362;2023-03-01T10:23:28;13.87;;;10.53;;
14516;SDS011;7344;50.864;4.362;2023-03-01T10:26:02;13.00;;;11.00;;
14516;SDS011;7344;50.864;4.362;2023-03-01T10:31:24;14.03;;;10.43;;
14516;SDS011;7344;50.864;4.362;2023-03-01T10:33:54;14.70;;;11.30;;
14516;SDS011;7344;50.864;4.362;2023-03-01T10:36:22;12.17;;;10.87;;
14516;SDS011;7344;50.864;4.362;2023-03-01T10:41:13;13.37;;;11.50;;
14516;SDS011;7344;50.864;4.362;2023-03-01T10:51:45;10.63;;;9.53;;
14516;SDS011;7344;50.864;4.362;2023-03-01T10:56:51;11.60;;;10.23;;
14516;SDS011;7344;50.864;4.362;2023-03-01T10:59:38;12.10;;;10.13;;
14516;SDS011;7344;50.864;4.362;2023-03-01T11:05:00;13.57;;;10.23;;
14516;SDS011;7344;50.864;4.362;2023-03-01T11:07:40;13.53;;;9.33;;
14516;SDS011;7344;50.864;4.362;2023-03-01T11:10:21;12.00;;;9.10;;
14516;SDS011;7344;50.864;4.362;2023-03-01T11:12:50;12.67;;;10.43;;
14516;SDS011;7344;50.864;4.362;2023-03-01T11:15:26;11.43;;;9.37;;
14516;SDS011;7344;50.864;4.362;2023-03-01T11:17:54;11.93;;;9.73;;
14516;SDS011;7344;50.864;4.362;2023-03-01T11:20:24;12.30;;;7.97;;
14516;SDS011;7344;50.864;4.362;2023-03-01T11:23:02;14.63;;;10.27;;
14516;SDS011;7344;50.864;4.362;2023-03-01T11:25:37;11.77;;;9.90;;
14516;SDS011;7344;50.864;4.362;2023-03-01T11:28:07;14.60;;;9.17;;
14516;SDS011;7344;50.864;4.362;2023-03-01T11:33:20;12.47;;;11.10;;
14516;SDS011;7344;50.864;4.362;2023-03-01T11:38:40;14.73;;;10.30;;
14516;SDS011;7344;50.864;4.362;2023-03-01T11:44:18;13.93;;;9.47;;
14516;SDS011;7344;50.864;4.362;2023-03-01T11:49:48;13.90;;;10.03;;
14516;SDS011;7344;50.864;4.362;2023-03-01T12:04:03;12.73;;;9.97;;
14516;SDS011;7344;50.864;4.362;2023-03-01T12:21:05;11.37;;;8.87;;
14516;SDS011;7344;50.864;4.362;2023-03-01T12:23:38;11.87;;;9.43;;
14516;SDS011;7344;50.864;4.362;2023-03-01T12:26:34;10.37;;;8.60;;
14516;SDS011;7344;50.864;4.362;2023-03-01T12:32:00;14.50;;;8.87;;
14516;SDS011;7344;50.864;4.362;2023-03-01T12:40:21;12.30;;;8.70;;
14516;SDS011;7344;50.864;4.362;2023-03-01T12:43:13;13.53;;;9.50;;
14516;SDS011;7344;50.864;4.362;2023-03-01T12:50:52;11.40;;;9.10;;
14516;SDS011;7344;50.864;4.362;2023-03-01T12:55:50;14.03;;;9.87;;
14516;SDS011;7344;50.864;4.362;2023-03-01T12:58:32;14.93;;;10.07;;
14516;SDS011;7344;50.864;4.362;2023-03-01T13:06:44;11.53;;;10.13;;
14516;SDS011;7344;50.864;4.362;2023-03-01T13:09:30;13.10;;;8.63;;
14516;SDS011;7344;50.864;4.362;2023-03-01T13:17:47;9.67;;;8.17;;
14516;SDS011;7344;50.864;4.362;2023-03-01T13:20:15;14.17;;;9.87;;
14516;SDS011;7344;50.864;4.362;2023-03-01T13:22:42;11.63;;;9.23;;
14516;SDS011;7344;50.864;4.362;2023-03-01T13:25:12;11.67;;;9.53;;
14516;SDS011;7344;50.864;4.362;2023-03-01T13:27:45;14.70;;;9.60;;
14516;SDS011;7344;50.864;4.362;2023-03-01T13:30:57;13.27;;;8.77;;
14516;SDS011;7344;50.864;4.362;2023-03-01T13:35:53;12.63;;;8.57;;
14516;SDS011;7344;50.864;4.362;2023-03-01T13:46:43;16.00;;;10.33;;
14516;SDS011;7344;50.864;4.362;2023-03-01T13:49:11;14.10;;;10.00;;
14516;SDS011;7344;50.864;4.362;2023-03-01T13:51:40;12.17;;;9.20;;
14516;SDS011;7344;50.864;4.362;2023-03-01T13:54:09;12.43;;;7.83;;
14516;SDS011;7344;50.864;4.362;2023-03-01T13:56:37;13.40;;;11.43;;
14516;SDS011;7344;50.864;4.362;2023-03-01T13:59:12;10.63;;;8.80;;
14516;SDS011;7344;50.864;4.362;2023-03-01T14:01:42;14.27;;;10.63;;
14516;SDS011;7344;50.864;4.362;2023-03-01T14:04:25;12.40;;;9.97;;
14516;SDS011;7344;50.864;4.362;2023-03-01T14:07:12;10.77;;;9.00;;
14516;SDS011;7344;50.864;4.362;2023-03-01T14:09:41;13.03;;;9.90;;
14516;SDS011;7344;50.864;4.362;2023-03-01T14:14:45;12.43;;;8.43;;
14516;SDS011;7344;50.864;4.362;2023-03-01T14:20:27;13.80;;;10.57;;
14516;SDS011;7344;50.864;4.362;2023-03-01T14:22:58;15.13;;;10.47;;
14516;SDS011;7344;50.864;4.362;2023-03-01T14:25:33;11.63;;;8.83;;
14516;SDS011;7344;50.864;4.362;2023-03-01T14:28:11;10.87;;;9.17;;
14516;SDS011;7344;50.864;4.362;2023-03-01T14:30:43;11.10;;;9.53;;
14516;SDS011;7344;50.864;4.362;2023-03-01T14:36:04;10.77;;;7.83;;
14516;SDS011;7344;50.864;4.362;2023-03-01T14:41:05;11.50;;;8.60;;
14516;SDS011;7344;50.864;4.362;2023-03-01T14:43:55;13.33;;;10.43;;
14516;SDS011;7344;50.864;4.362;2023-03-01T14:49:17;12.63;;;10.47;;
14516;SDS011;7344;50.864;4.362;2023-03-01T14:51:57;17.47;;;10.97;;
14516;SDS011;7344;50.864;4.362;2023-03-01T14:56:51;13.00;;;10.00;;
14516;SDS011;7344;50.864;4.362;2023-03-01T14:59:20;14.23;;;10.70;;
14516;SDS011;7344;50.864;4.362;2023-03-01T15:01:48;13.20;;;11.00;;
14516;SDS011;7344;50.864;4.362;2023-03-01T15:04:15;15.90;;;10.07;;
14516;SDS011;7344;50.864;4.362;2023-03-01T15:06:41;15.97;;;10.93;;
14516;SDS011;7344;50.864;4.362;2023-03-01T15:09:11;14.67;;;10.70;;
14516;SDS011;7344;50.864;4.362;2023-03-01T15:11:38;13.63;;;10.83;;
14516;SDS011;7344;50.864;4.362;2023-03-01T15:16:52;9.63;;;7.63;;
14516;SDS011;7344;50.864;4.362;2023-03-01T15:19:18;13.37;;;9.70;;
14516;SDS011;7344;50.864;4.362;2023-03-01T15:21:46;12.33;;;8.57;;
14516;SDS011;7344;50.864;4.362;2023-03-01T15:24:19;12.90;;;9.77;;
14516;SDS011;7344;50.864;4.362;2023-03-01T15:26:53;11.73;;;9.10;;
14516;SDS011;7344;50.864;4.362;2023-03-01T15:29:31;12.47;;;9.60;;
14516;SDS011;7344;50.864;4.362;2023-03-01T15:31:59;13.03;;;10.47;;
14516;SDS011;7344;50.864;4.362;2023-03-01T15:34:34;15.07;;;11.27;;
14516;SDS011;7344;50.864;4.362;2023-03-01T15:37:35;15.97;;;11.10;;
14516;SDS011;7344;50.864;4.362;2023-03-01T15:39:58;14.13;;;9.90;;
14516;SDS011;7344;50.864;4.362;2023-03-01T15:45:08;15.60;;;11.17;;
14516;SDS011;7344;50.864;4.362;2023-03-01T15:47:33;14.83;;;11.17;;
14516;SDS011;7344;50.864;4.362;2023-03-01T15:50:00;18.83;;;8.30;;
14516;SDS011;7344;50.864;4.362;2023-03-01T15:52:39;12.80;;;9.37;;
14516;SDS011;7344;50.864;4.362;2023-03-01T15:55:23;13.57;;;10.77;;
14516;SDS011;7344;50.864;4.362;2023-03-01T15:57:58;14.93;;;11.17;;
14516;SDS011;7344;50.864;4.362;2023-03-01T16:00:42;14.10;;;9.90;;
14516;SDS011;7344;50.864;4.362;2023-03-01T16:03:10;16.10;;;10.10;;
14516;SDS011;7344;50.864;4.362;2023-03-01T16:05:36;16.63;;;9.83;;
14516;SDS011;7344;50.864;4.362;2023-03-01T16:08:03;16.67;;;10.73;;
14516;SDS011;7344;50.864;4.362;2023-03-01T16:10:30;10.93;;;8.17;;
14516;SDS011;7344;50.864;4.362;2023-03-01T16:12:57;15.07;;;10.70;;
14516;SDS011;7344;50.864;4.362;2023-03-01T16:15:27;12.80;;;9.70;;
14516;SDS011;7344;50.864;4.362;2023-03-01T16:17:55;16.03;;;10.27;;
14516;SDS011;7344;50.864;4.362;2023-03-01T16:20:23;12.63;;;7.40;;
14516;SDS011;7344;50.864;4.362;2023-03-01T16:22:49;13.93;;;9.80;;
14516;SDS011;7344;50.864;4.362;2023-03-01T16:25:18;15.90;;;10.77;;
14516;SDS011;7344;50.864;4.362;2023-03-01T16:27:45;12.63;;;9.67;;
14516;SDS011;7344;50.864;4.362;2023-03-01T16:30:12;14.13;;;9.87;;
14516;SDS011;7344;50.864;4.362;2023-03-01T16:32:39;15.77;;;8.30;;
14516;SDS011;7344;50.864;4.362;2023-03-01T16:35:09;15.77;;;10.60;;
14516;SDS011;7344;50.864;4.362;2023-03-01T16:37:36;10.73;;;8.10;;
14516;SDS011;7344;50.864;4.362;2023-03-01T16:40:03;9.77;;;8.77;;
14516;SDS011;7344;50.864;4.362;2023-03-01T16:42:36;13.27;;;9.47;;
14516;SDS011;7344;50.864;4.362;2023-03-01T16:45:02;12.83;;;9.93;;
14516;SDS011;7344;50.864;4.362;2023-03-01T16:47:28;13.60;;;10.43;;
14516;SDS011;7344;50.864;4.362;2023-03-01T16:49:54;13.07;;;10.00;;
14516;SDS011;7344;50.864;4.362;2023-03-01T16:52:20;13.03;;;9.63;;
14516;SDS011;7344;50.864;4.362;2023-03-01T16:54:46;12.30;;;9.27;;
14516;SDS011;7344;50.864;4.362;2023-03-01T16:57:13;12.57;;;9.50;;
14516;SDS011;7344;50.864;4.362;2023-03-01T16:59:38;13.30;;;9.37;;
14516;SDS011;7344;50.864;4.362;2023-03-01T17:02:05;11.80;;;8.93;;
14516;SDS011;7344;50.864;4.362;2023-03-01T17:04:33;15.30;;;9.10;;
14516;SDS011;7344;50.864;4.362;2023-03-01T17:06:58;12.93;;;9.43;;
14516;SDS011;7344;50.864;4.362;2023-03-01T17:09:24;9.87;;;7.63;;
14516;SDS011;7344;50.864;4.362;2023-03-01T17:11:49;14.93;;;10.40;;